Kezdőlap
METAR-TAF:

METAR-TAF

Repülőterek :

Brunei, Brunei

földrajzi szélesség: 04-56N, földrajzi hosszúság: 114-56E, magasság: 22 m

Jelenlegi meteorológiai megfigyelések

A jelentés 15 perccel ezelõtt készült, 17:00 UTC
Délnyugati szél 3 kt
Hőmérséklet 27°C
Páratartalom 84%
Légköri nyomás 1008 hPa
Látótávolság: 7000 m
Kevés felhő 1500 lábon
Szakadozott felhőzet 14000 lábon

METAR: WBSB 171700Z 22003KT 7000 FEW015 BKN140 27/24 Q1008 NOSIG

Idő: 01:15 (17:15 UTC)

Előrejelzés

A jelentés 6 órával és 15 perccel ezelõtt készült, 11:00 UTC
Az előrejelzés 17-én 12 óra UTC és 18-én 18 óra UTC között érvényes
Délnyugati szél 2 kt
Látótávolság: 7000 m
Kevés felhő 1500 lábon
18-én 03 óra UTC és 18-én 05 óra UTC között fokozatosan kialakuló
Észak-északnyugati szél 10 kt
Kevés felhő 1600 lábon, Cumulonimbus.

TAF: WBSB 171100Z 1712/1818 22002KT 7000 FEW015 BECMG 1803/1805 33010KT FEW016CB

Meteorológiai megfigyelések és előrejelzések több, mint 4000 repülőtéren (METAR és TAF jelentéseket).

A térképen piros és sárga pontok jelzik az elérhető meteorológiai állomásokat.

Mozgassa az egeret a pont fölött, hogy megjelenjen az állomás neve.

Azután kattintson az időjárási megfigyelések és előrejelzések megtekintéséhez.

A térkép megváltoztatása: kattintson a fekete keresztel jelölt zöld gombra ráközelítéshez, a vonallal jelölt zöld gombra távolításhoz, vagy a zöld nyilakra a szomszédos térképek eléréséhez.


METAR-TAF: